Active alerts

Dallas County
  Details for Dallas County River Flood Warning  +1 additional alert
Denton County
  Details for Denton County Areal Flood Watch
Tarrant County
  Details for Tarrant County Areal Flood Watch

Flower Mound more information Flower Mound


Coppell more information Coppell


I-35W at Alliance Airport more information I-35W at Alliance Airport


FM114 @ DFW North Entrance more information FM114 @ DFW North Entrance



 DALLAS COUNTY  -  River Flood Warning River Flood Warning     Areal Flood Watch Areal Flood Watch        DENTON COUNTY  -  Areal Flood Watch Areal Flood Watch        TARRANT COUNTY  -  Areal Flood Watch Areal Flood Watch      

Weather Underground History page Text

Daily Summary for February 22, 2018 Units:  English    Metric   Both
« Previous Day
Next Day »
Daily Weekly Monthly Yearly Custom
  Current: High: Low: Average:
Temperature: 39.6 °F TemperatureF °F 33.3 °F 36.2 °F
Dew Point: 38.5 °F DewpointF °F 32.2 °F 35.3 °F
Humidity: 96 % Humidity % 96 % 96 %
Wind Speed: 0.9 mph WindSpeedMPH mph 0.0 mph 0.7 mph
Wind Gust: 1.0 mph WindSpeedGustMPH mph - -
Wind:NNW - - WSW
Pressure: 30.26 in PressureIn in 30.22 in -
Precipitation: 0.30 in      
Historical Graphs
 
 
Tabular Data for February 22, 2018
Time Temperature Dew Point Pressure Wind Wind Speed Wind Gust Humidity Rainfall Rate (Hourly)
TemperatureF °F DewpointF °F PressureIn in Calm     Humidity % HourlyPrecipIn in
00:01 34.3 °F 33.3 °F 30.32 in West 0.9 mph 4.0 mph 96 % 0.00 in
00:06 34.3 °F 33.3 °F 30.32 in North 2.9 mph 4.0 mph 96 % 0.00 in
00:11 34.2 °F 33.1 °F 30.32 in North 2.0 mph 4.0 mph 96 % 0.00 in
00:16 34.2 °F 33.1 °F 30.32 in NNW 4.0 mph 6.0 mph 96 % 0.00 in
00:21 34.2 °F 33.1 °F 30.32 in West 2.0 mph 7.0 mph 96 % 0.00 in
00:26 34.0 °F 32.9 °F 30.32 in WNW 2.0 mph 7.0 mph 96 % 0.00 in
00:31 34.0 °F 32.9 °F 30.32 in West 2.0 mph 6.0 mph 96 % 0.00 in
00:36 34.0 °F 32.9 °F 30.32 in North 2.9 mph 7.0 mph 96 % 0.00 in
00:41 33.8 °F 32.7 °F 30.32 in Calm   3.0 mph 96 % 0.00 in
00:46 33.8 °F 32.7 °F 30.32 in NW 2.0 mph 4.0 mph 96 % 0.00 in
00:51 33.8 °F 32.7 °F 30.31 in Calm   9.0 mph 96 % 0.00 in
00:56 33.8 °F 32.7 °F 30.31 in Calm   3.0 mph 96 % 0.00 in
01:01 34.0 °F 32.9 °F 30.31 in NE 2.0 mph 4.0 mph 96 % 0.00 in
01:06 34.0 °F 32.9 °F 30.31 in NNW 0.9 mph 5.0 mph 96 % 0.00 in
01:11 34.0 °F 32.9 °F 30.32 in North 0.9 mph 3.0 mph 96 % 0.00 in
01:16 34.0 °F 32.9 °F 30.31 in NNW 2.0 mph 3.0 mph 96 % 0.00 in
01:21 34.0 °F 32.9 °F 30.31 in North 4.0 mph 5.0 mph 96 % 0.00 in
01:26 34.0 °F 32.9 °F 30.31 in NW 0.9 mph 7.0 mph 96 % 0.00 in
01:31 33.6 °F 32.5 °F 30.31 in NNW 4.9 mph 7.0 mph 96 % 0.00 in
01:36 33.6 °F 32.5 °F 30.30 in Calm   7.0 mph 96 % 0.00 in
01:41 33.4 °F 32.4 °F 30.31 in Calm   4.0 mph 96 % 0.00 in
01:46 33.6 °F 32.5 °F 30.30 in North 2.0 mph 3.0 mph 96 % 0.00 in
01:51 33.6 °F 32.5 °F 30.30 in Calm   4.0 mph 96 % 0.00 in
01:57 33.6 °F 32.5 °F 30.30 in NW 2.0 mph 4.0 mph 96 % 0.00 in
02:02 33.4 °F 32.4 °F 30.30 in North 4.9 mph 5.0 mph 96 % 0.00 in
02:07 33.4 °F 32.4 °F 30.30 in NNW 2.0 mph 3.0 mph 96 % 0.00 in
02:12 33.6 °F 32.5 °F 30.30 in Calm   5.0 mph 96 % 0.00 in
02:17 33.6 °F 32.5 °F 30.30 in North 2.0 mph 7.0 mph 96 % 0.00 in
02:22 33.4 °F 32.4 °F 30.30 in North 2.0 mph 4.0 mph 96 % 0.00 in
02:27 33.6 °F 32.5 °F 30.30 in Calm   4.0 mph 96 % 0.00 in
02:32 33.4 °F 32.4 °F 30.31 in Calm   2.0 mph 96 % 0.00 in
02:37 33.6 °F 32.5 °F 30.31 in Calm   3.0 mph 96 % 0.00 in
02:42 33.6 °F 32.5 °F 30.31 in Calm   2.0 mph 96 % 0.00 in
02:48 33.6 °F 32.5 °F 30.31 in NNW 2.0 mph 5.0 mph 96 % 0.00 in
02:53 33.4 °F 32.4 °F 30.31 in NNW 0.9 mph 4.0 mph 96 % 0.00 in
02:59 33.4 °F 32.4 °F 30.31 in North 0.9 mph 3.0 mph 96 % 0.00 in
03:04 33.4 °F 32.4 °F 30.30 in North 0.9 mph 3.0 mph 96 % 0.00 in
03:09 33.4 °F 32.4 °F 30.30 in NNE 2.0 mph 6.0 mph 96 % 0.00 in
03:14 33.4 °F 32.4 °F 30.30 in Calm   3.0 mph 96 % 0.00 in
03:19 33.4 °F 32.4 °F 30.30 in North 0.9 mph 3.0 mph 96 % 0.00 in
03:24 33.4 °F 32.4 °F 30.30 in North 0.9 mph 4.0 mph 96 % 0.00 in
03:29 33.3 °F 32.2 °F 30.29 in NNW 2.9 mph 7.0 mph 96 % 0.00 in
03:35 33.4 °F 32.4 °F 30.29 in North 0.9 mph 4.0 mph 96 % 0.00 in
03:40 33.4 °F 32.4 °F 30.29 in North 4.0 mph 6.0 mph 96 % 0.00 in
03:45 33.3 °F 32.2 °F 30.29 in NW 2.0 mph 5.0 mph 96 % 0.00 in
03:50 33.3 °F 32.2 °F 30.29 in Calm   4.0 mph 96 % 0.00 in
03:55 33.4 °F 32.4 °F 30.29 in Calm   3.0 mph 96 % 0.00 in
04:00 33.4 °F 32.4 °F 30.30 in North 4.0 mph 4.0 mph 96 % 0.00 in
04:05 33.4 °F 32.4 °F 30.30 in Calm   3.0 mph 96 % 0.00 in
04:10 33.6 °F 32.5 °F 30.29 in Calm   5.0 mph 96 % 0.00 in
04:15 33.6 °F 32.5 °F 30.30 in NNW 0.9 mph 2.0 mph 96 % 0.00 in
04:20 33.6 °F 32.5 °F 30.30 in Calm   2.0 mph 96 % 0.00 in
04:25 33.6 °F 32.5 °F 30.30 in NNW 2.0 mph 4.0 mph 96 % 0.00 in
04:30 33.6 °F 32.5 °F 30.30 in NW 2.0 mph 3.0 mph 96 % 0.00 in
04:35 33.6 °F 32.5 °F 30.30 in NNW 2.0 mph 2.0 mph 96 % 0.00 in
04:40 33.6 °F 32.5 °F 30.30 in Calm   3.0 mph 96 % 0.00 in
04:45 33.6 °F 32.5 °F 30.30 in Calm   3.0 mph 96 % 0.00 in
04:50 33.6 °F 32.5 °F 30.31 in NNE 2.0 mph 5.0 mph 96 % 0.01 in
04:55 33.6 °F 32.5 °F 30.31 in North 0.9 mph 4.0 mph 96 % 0.01 in
05:00 33.6 °F 32.5 °F 30.31 in NNE 0.9 mph 1.0 mph 96 % 0.01 in
05:05 33.8 °F 32.7 °F 30.31 in Calm   2.0 mph 96 % 0.01 in
05:10 33.8 °F 32.7 °F 30.31 in Calm   3.0 mph 96 % 0.01 in
05:15 34.0 °F 32.9 °F 30.31 in Calm   4.0 mph 96 % 0.01 in
05:20 34.0 °F 32.9 °F 30.30 in Calm   3.0 mph 96 % 0.01 in
05:25 34.0 °F 32.9 °F 30.31 in Calm   3.0 mph 96 % 0.01 in
05:30 34.0 °F 32.9 °F 30.30 in Calm   1.0 mph 96 % 0.01 in
05:35 34.0 °F 32.9 °F 30.30 in North 0.9 mph 5.0 mph 96 % 0.01 in
05:40 34.0 °F 32.9 °F 30.30 in NW 2.9 mph 6.0 mph 96 % 0.01 in
05:45 34.0 °F 32.9 °F 30.30 in North 2.9 mph 6.0 mph 96 % 0.01 in
05:50 34.0 °F 32.9 °F 30.29 in North 0.9 mph 2.0 mph 96 % 0.00 in
05:55 34.0 °F 32.9 °F 30.30 in North 0.9 mph 3.0 mph 96 % 0.00 in
06:00 34.0 °F 32.9 °F 30.30 in Calm   3.0 mph 96 % 0.00 in
06:05 34.2 °F 33.1 °F 30.30 in North 0.9 mph 4.0 mph 96 % 0.00 in
06:10 34.2 °F 33.1 °F 30.29 in WNW 2.9 mph 4.0 mph 96 % 0.00 in
06:15 34.2 °F 33.1 °F 30.28 in North 2.0 mph 3.0 mph 96 % 0.00 in
06:20 34.2 °F 33.1 °F 30.29 in Calm   1.0 mph 96 % 0.00 in
06:25 34.2 °F 33.4 °F 30.30 in NNE 2.0 mph 2.0 mph 97 % 0.00 in
06:31 34.3 °F 33.3 °F 30.28 in North 0.9 mph 2.0 mph 96 % 0.00 in
06:36 34.3 °F 33.6 °F 30.29 in North 2.0 mph 5.0 mph 97 % 0.00 in
06:41 34.2 °F 33.4 °F 30.28 in Calm   5.0 mph 97 % 0.00 in
06:46 34.2 °F 33.4 °F 30.29 in North 2.0 mph 5.0 mph 97 % 0.00 in
06:51 34.2 °F 33.4 °F 30.29 in NNE 2.0 mph 4.0 mph 97 % 0.00 in
06:56 34.3 °F 33.6 °F 30.27 in NNW 2.0 mph 5.0 mph 97 % 0.00 in
07:01 34.3 °F 33.6 °F 30.29 in North 2.0 mph 4.0 mph 97 % 0.00 in
07:06 34.3 °F 33.6 °F 30.30 in Calm   3.0 mph 97 % 0.00 in
07:11 34.3 °F 33.6 °F 30.30 in Calm   1.0 mph 97 % 0.00 in
07:16 34.5 °F 33.4 °F 30.30 in Calm     96 % 0.00 in
07:21 34.5 °F 33.4 °F 30.29 in NNW 3.0 mph 3.0 mph 96 % 0.00 in
07:26 34.5 °F 33.4 °F 30.28 in Calm   1.0 mph 96 % 0.00 in
07:31 34.7 °F 33.6 °F 30.29 in Calm   1.0 mph 96 % 0.00 in
07:36 34.9 °F 33.8 °F 30.29 in Calm     96 % 0.00 in
07:41 34.9 °F 34.2 °F 30.28 in Calm   2.0 mph 97 % 0.00 in
07:46 35.1 °F 34.3 °F 30.28 in Calm   1.0 mph 97 % 0.00 in
07:51 35.1 °F 34.3 °F 30.29 in Calm   2.0 mph 97 % 0.00 in
07:56 35.1 °F 34.3 °F 30.29 in NNW 0.9 mph 1.0 mph 97 % 0.00 in
08:01 35.2 °F 34.2 °F 30.30 in Calm   4.0 mph 96 % 0.00 in
08:06 35.2 °F 34.2 °F 30.32 in Calm   2.0 mph 96 % 0.00 in
08:11 35.2 °F 34.5 °F 30.32 in Calm     97 % 0.00 in
08:16 35.4 °F 34.7 °F 30.34 in NNW 2.0 mph 3.0 mph 97 % 0.00 in
08:21 35.4 °F 34.7 °F 30.27 in NNW 2.9 mph 8.0 mph 97 % 0.01 in
08:26 35.2 °F 34.5 °F 30.27 in Calm   2.0 mph 97 % 0.01 in
08:31 35.4 °F 34.7 °F 30.25 in Calm   8.0 mph 97 % 0.02 in
08:36 35.4 °F 34.7 °F 30.22 in NNE 0.9 mph 4.0 mph 97 % 0.02 in
08:41 35.4 °F 34.7 °F 30.24 in Calm   3.0 mph 97 % 0.03 in
08:46 35.4 °F 34.7 °F 30.23 in Calm   1.0 mph 97 % 0.04 in
08:51 35.6 °F 34.9 °F 30.24 in Calm   4.0 mph 97 % 0.06 in
08:56 35.8 °F 35.1 °F 30.28 in Calm   4.0 mph 97 % 0.07 in
09:01 35.8 °F 35.1 °F 30.31 in Calm   1.0 mph 97 % 0.08 in
09:06 36.0 °F 35.2 °F 30.28 in NNW 4.0 mph 6.0 mph 97 % 0.10 in
09:11 36.0 °F 35.2 °F 30.31 in Calm   1.0 mph 97 % 0.11 in
09:16 36.1 °F 35.4 °F 30.28 in Calm   3.0 mph 97 % 0.13 in
09:21 36.1 °F 35.4 °F 30.28 in NNW 2.0 mph 2.0 mph 97 % 0.13 in
09:26 36.1 °F 35.4 °F 30.24 in Calm   1.0 mph 97 % 0.13 in
09:31 36.3 °F 35.6 °F 30.23 in Calm   1.0 mph 97 % 0.14 in
09:36 36.3 °F 35.6 °F 30.28 in Calm   2.0 mph 97 % 0.14 in
09:41 36.3 °F 35.6 °F 30.24 in Calm   1.0 mph 97 % 0.13 in
09:46 36.5 °F 35.8 °F 30.27 in Calm   1.0 mph 97 % 0.13 in
09:52 36.9 °F 36.1 °F 30.27 in Calm     97 % 0.12 in
09:57 36.9 °F 36.1 °F 30.28 in Calm     97 % 0.13 in
10:02 37.0 °F 36.3 °F 30.29 in Calm   1.0 mph 97 % 0.12 in
10:07 37.0 °F 36.3 °F 30.27 in Calm     97 % 0.11 in
10:12 37.0 °F 36.3 °F 30.27 in NNW 0.9 mph 2.0 mph 97 % 0.10 in
10:17 37.0 °F 36.3 °F 30.28 in West 2.0 mph 3.0 mph 97 % 0.08 in
10:22 36.9 °F 36.1 °F 30.28 in Calm   1.0 mph 97 % 0.07 in
10:27 37.0 °F 36.3 °F 30.30 in NW 2.9 mph 5.0 mph 97 % 0.07 in
10:32 37.0 °F 36.3 °F 30.28 in Calm   1.0 mph 97 % 0.08 in
10:37 37.2 °F 36.5 °F 30.29 in Calm   4.0 mph 97 % 0.09 in
10:42 37.2 °F 36.5 °F 30.29 in Calm   1.0 mph 97 % 0.09 in
10:47 37.0 °F 36.3 °F 30.29 in Calm   1.0 mph 97 % 0.08 in
10:52 37.0 °F 36.3 °F 30.28 in WNW 0.9 mph 2.0 mph 97 % 0.07 in
10:57 37.0 °F 36.3 °F 30.29 in Calm   4.0 mph 97 % 0.05 in
11:02 37.0 °F 36.3 °F 30.28 in Calm     97 % 0.04 in
11:07 37.0 °F 36.3 °F 30.28 in Calm     97 % 0.04 in
11:12 37.4 °F 36.7 °F 30.29 in WNW 2.0 mph 3.0 mph 97 % 0.04 in
11:17 37.6 °F 36.9 °F 30.28 in Calm   2.0 mph 97 % 0.04 in
11:22 37.6 °F 36.9 °F 30.28 in Calm   2.0 mph 97 % 0.05 in
11:27 37.8 °F 37.0 °F 30.28 in Calm   2.0 mph 97 % 0.04 in
11:32 37.8 °F 37.0 °F 30.28 in Calm   3.0 mph 97 % 0.02 in
11:37 37.8 °F 37.0 °F 30.27 in Calm   2.0 mph 97 % 0.01 in
11:43 37.9 °F 37.2 °F 30.27 in NNW 0.9 mph 3.0 mph 97 % 0.01 in
11:48 37.8 °F 37.0 °F 30.27 in NNW 0.9 mph 2.0 mph 97 % 0.01 in
11:53 37.8 °F 37.0 °F 30.28 in Calm   4.0 mph 97 % 0.01 in
11:58 37.8 °F 37.0 °F 30.28 in Calm   3.0 mph 97 % 0.01 in
12:03 37.6 °F 36.9 °F 30.28 in Calm   1.0 mph 97 % 0.01 in
12:08 37.6 °F 36.9 °F 30.28 in Calm   2.0 mph 97 % 0.01 in
12:13 37.6 °F 36.9 °F 30.27 in NNE 0.9 mph 4.0 mph 97 % 0.01 in
12:18 37.8 °F 37.0 °F 30.27 in Calm   4.0 mph 97 % 0.01 in
12:23 37.8 °F 37.0 °F 30.26 in North 2.0 mph 3.0 mph 97 % 0.00 in
12:28 37.9 °F 37.2 °F 30.26 in NW 0.9 mph 4.0 mph 97 % 0.00 in
12:33 37.9 °F 37.2 °F 30.26 in NW 0.9 mph 1.0 mph 97 % 0.00 in
12:38 37.9 °F 37.2 °F 30.25 in North 2.0 mph 3.0 mph 97 % 0.00 in
12:43 37.9 °F 37.2 °F 30.25 in Calm     97 % 0.00 in
12:48 38.1 °F 37.4 °F 30.25 in Calm   2.0 mph 97 % 0.00 in
12:53 37.9 °F 37.2 °F 30.25 in Calm   3.0 mph 97 % 0.00 in
12:58 37.9 °F 37.2 °F 30.25 in North 0.9 mph 2.0 mph 97 % 0.00 in
13:03 37.9 °F 37.2 °F 30.25 in NNW 2.0 mph 4.0 mph 97 % 0.00 in
13:08 38.1 °F 37.4 °F 30.24 in WNW 2.0 mph 3.0 mph 97 % 0.00 in
13:14 37.9 °F 37.2 °F 30.24 in Calm   2.0 mph 97 % 0.00 in
13:19 38.1 °F 37.4 °F 30.24 in NNW 2.0 mph 2.0 mph 97 % 0.00 in
13:24 37.9 °F 37.2 °F 30.24 in Calm   3.0 mph 97 % 0.00 in
13:29 37.9 °F 37.2 °F 30.24 in NNW 0.9 mph 3.0 mph 97 % 0.00 in
13:34 37.9 °F 37.2 °F 30.24 in West 4.0 mph 5.0 mph 97 % 0.00 in
13:39 37.9 °F 37.2 °F 30.24 in Calm   3.0 mph 97 % 0.00 in
13:44 37.9 °F 37.2 °F 30.23 in WNW 0.9 mph 3.0 mph 97 % 0.00 in
13:49 37.9 °F 37.2 °F 30.24 in Calm   1.0 mph 97 % 0.00 in
13:54 37.9 °F 37.2 °F 30.24 in Calm   3.0 mph 97 % 0.00 in
13:59 37.9 °F 37.2 °F 30.24 in Calm   1.0 mph 97 % 0.00 in
14:04 37.9 °F 37.2 °F 30.23 in Calm   4.0 mph 97 % 0.00 in
14:09 38.1 °F 37.4 °F 30.24 in WNW 0.9 mph 4.0 mph 97 % 0.00 in
14:14 38.5 °F 37.8 °F 30.23 in West 2.0 mph 3.0 mph 97 % 0.00 in
14:19 38.3 °F 37.6 °F 30.23 in WNW 2.9 mph 5.0 mph 97 % 0.00 in
14:24 38.1 °F 37.4 °F 30.23 in NNW 0.9 mph 5.0 mph 97 % 0.00 in
14:29 38.1 °F 37.4 °F 30.23 in NW 0.9 mph 2.0 mph 97 % 0.01 in
14:34 38.1 °F 37.4 °F 30.24 in NW 2.0 mph 3.0 mph 97 % 0.01 in
14:39 37.9 °F 37.2 °F 30.23 in Calm   6.0 mph 97 % 0.01 in
14:44 37.9 °F 37.2 °F 30.23 in NNE 0.9 mph 2.0 mph 97 % 0.01 in
14:49 37.9 °F 37.2 °F 30.22 in Calm     97 % 0.01 in
14:55 37.9 °F 37.2 °F 30.23 in Calm   4.0 mph 97 % 0.01 in
15:00 37.8 °F 37.0 °F 30.22 in Calm   2.0 mph 97 % 0.01 in
15:05 37.8 °F 37.0 °F 30.22 in Calm   5.0 mph 97 % 0.01 in
15:10 37.6 °F 36.5 °F 30.22 in NNE 2.9 mph 5.0 mph 96 % 0.01 in
15:15 37.4 °F 36.3 °F 30.23 in NNW 0.9 mph 6.0 mph 96 % 0.01 in
15:20 37.2 °F 36.1 °F 30.23 in Calm   4.0 mph 96 % 0.01 in
15:25 37.2 °F 36.1 °F 30.23 in NNE 0.9 mph 3.0 mph 96 % 0.01 in
15:30 37.2 °F 36.5 °F 30.23 in WNW 4.9 mph 6.0 mph 97 % 0.00 in
15:36 37.2 °F 36.5 °F 30.23 in NNE 2.0 mph 5.0 mph 97 % 0.00 in
15:41 37.2 °F 36.5 °F 30.23 in North 2.0 mph 5.0 mph 97 % 0.01 in
15:46 37.2 °F 36.1 °F 30.24 in WNW 0.9 mph 4.0 mph 96 % 0.01 in
15:51 37.2 °F 36.5 °F 30.23 in Calm   2.0 mph 97 % 0.01 in
15:56 37.2 °F 36.5 °F 30.23 in North 0.9 mph 5.0 mph 97 % 0.01 in
16:01 37.0 °F 36.3 °F 30.24 in North 2.9 mph 5.0 mph 97 % 0.01 in
16:06 37.0 °F 36.3 °F 30.23 in WNW 0.9 mph 5.0 mph 97 % 0.01 in
16:11 37.0 °F 36.3 °F 30.23 in Calm   3.0 mph 97 % 0.01 in
16:16 37.2 °F 36.5 °F 30.22 in NNE 0.9 mph 4.0 mph 97 % 0.01 in
16:21 37.2 °F 36.1 °F 30.23 in NNE 2.9 mph 5.0 mph 96 % 0.01 in
16:26 37.0 °F 36.0 °F 30.22 in North 2.0 mph 5.0 mph 96 % 0.01 in
16:31 37.0 °F 36.0 °F 30.23 in NNW 0.9 mph 4.0 mph 96 % 0.01 in
16:36 36.9 °F 35.8 °F 30.22 in NNW 0.9 mph 3.0 mph 96 % 0.01 in
16:41 37.0 °F 36.0 °F 30.23 in NW 0.9 mph 4.0 mph 96 % 0.01 in
16:46 37.0 °F 36.0 °F 30.23 in NNW 0.9 mph 4.0 mph 96 % 0.01 in
16:51 37.0 °F 36.0 °F 30.23 in NNW 2.9 mph 3.0 mph 96 % 0.01 in
16:56 37.0 °F 36.0 °F 30.23 in Calm   3.0 mph 96 % 0.01 in
17:01 37.0 °F 36.0 °F 30.23 in Calm   2.0 mph 96 % 0.01 in
17:06 37.2 °F 36.1 °F 30.23 in WNW 0.9 mph 1.0 mph 96 % 0.01 in
17:11 37.2 °F 36.1 °F 30.22 in Calm   1.0 mph 96 % 0.01 in
17:16 37.2 °F 36.1 °F 30.23 in Calm   2.0 mph 96 % 0.01 in
17:22 37.2 °F 36.1 °F 30.23 in Calm   1.0 mph 96 % 0.01 in
17:27 37.6 °F 36.5 °F 30.23 in Calm   1.0 mph 96 % 0.01 in
17:32 37.6 °F 36.5 °F 30.23 in Calm   1.0 mph 96 % 0.01 in
17:37 37.6 °F 36.9 °F 30.23 in Calm     97 % 0.01 in
17:42 37.6 °F 36.9 °F 30.22 in NW 0.9 mph 1.0 mph 97 % 0.00 in
17:47 37.6 °F 36.5 °F 30.22 in Calm   2.0 mph 96 % 0.00 in
17:52 37.6 °F 36.9 °F 30.22 in Calm   1.0 mph 97 % 0.00 in
17:57 37.8 °F 37.0 °F 30.23 in Calm   1.0 mph 97 % 0.00 in
18:02 37.8 °F 37.0 °F 30.22 in Calm     97 % 0.00 in
18:07 37.8 °F 36.7 °F 30.22 in Calm     96 % 0.00 in
18:12 37.8 °F 36.7 °F 30.22 in Calm     96 % 0.00 in
18:17 37.8 °F 36.7 °F 30.22 in Calm     96 % 0.00 in
18:22 37.9 °F 36.9 °F 30.22 in Calm     96 % 0.00 in
18:27 37.9 °F 36.9 °F 30.22 in Calm     96 % 0.00 in
18:32 37.9 °F 36.9 °F 30.22 in Calm     96 % 0.00 in
18:37 37.9 °F 36.9 °F 30.23 in Calm     96 % 0.00 in
18:42 38.1 °F 37.0 °F 30.22 in Calm     96 % 0.00 in
18:47 38.1 °F 37.0 °F 30.22 in Calm     96 % 0.00 in
18:52 38.1 °F 37.4 °F 30.23 in Calm     97 % 0.00 in
18:57 38.3 °F 37.6 °F 30.23 in Calm     97 % 0.00 in
19:02 38.3 °F 37.6 °F 30.23 in Calm     97 % 0.00 in
19:07 38.1 °F 37.0 °F 30.23 in Calm     96 % 0.00 in
19:12 38.1 °F 37.0 °F 30.23 in Calm     96 % 0.00 in
19:17 38.1 °F 37.0 °F 30.24 in Calm     96 % 0.00 in
19:22 38.1 °F 37.0 °F 30.24 in Calm     96 % 0.00 in
19:27 38.1 °F 37.0 °F 30.24 in Calm     96 % 0.00 in
19:32 38.1 °F 37.0 °F 30.24 in Calm     96 % 0.00 in
19:37 38.3 °F 37.2 °F 30.24 in Calm     96 % 0.00 in
19:42 38.3 °F 37.2 °F 30.24 in Calm     96 % 0.00 in
19:47 38.5 °F 37.4 °F 30.25 in Calm     96 % 0.00 in
19:52 38.5 °F 37.4 °F 30.26 in Calm     96 % 0.00 in
19:57 38.7 °F 37.6 °F 30.26 in Calm     96 % 0.00 in
20:02 38.7 °F 37.9 °F 30.25 in Calm     97 % 0.00 in
20:07 38.8 °F 38.1 °F 30.25 in Calm     97 % 0.00 in
20:12 38.8 °F 38.1 °F 30.25 in Calm   1.0 mph 97 % 0.00 in
20:17 38.8 °F 38.1 °F 30.26 in Calm   2.0 mph 97 % 0.00 in
20:23 38.8 °F 38.1 °F 30.26 in Calm     97 % 0.00 in
20:28 38.8 °F 38.1 °F 30.26 in Calm     97 % 0.00 in
20:33 39.0 °F 37.9 °F 30.26 in Calm     96 % 0.00 in
20:38 39.0 °F 37.9 °F 30.25 in Calm   1.0 mph 96 % 0.00 in
20:43 39.0 °F 37.9 °F 30.26 in Calm     96 % 0.00 in
20:48 39.0 °F 37.9 °F 30.26 in NW 0.9 mph 2.0 mph 96 % 0.00 in
20:53 39.0 °F 37.9 °F 30.26 in Calm   2.0 mph 96 % 0.00 in
20:58 39.0 °F 37.9 °F 30.26 in Calm   1.0 mph 96 % 0.00 in
21:03 39.0 °F 37.9 °F 30.26 in Calm   3.0 mph 96 % 0.00 in
21:06 39.0 °F 37.9 °F 30.26 in Calm   1.0 mph 96 % 0.00 in
21:11 39.0 °F 37.9 °F 30.26 in Calm   2.0 mph 96 % 0.00 in
21:16 39.0 °F 37.9 °F 30.27 in Calm   1.0 mph 96 % 0.00 in
21:21 39.0 °F 37.9 °F 30.27 in Calm     96 % 0.00 in
21:26 39.0 °F 37.9 °F 30.27 in Calm   1.0 mph 96 % 0.00 in
21:31 39.0 °F 37.9 °F 30.27 in Calm   1.0 mph 96 % 0.00 in
21:36 39.0 °F 37.9 °F 30.26 in Calm     96 % 0.00 in
21:41 39.2 °F 38.1 °F 30.27 in Calm   2.0 mph 96 % 0.00 in
21:46 39.2 °F 38.1 °F 30.27 in Calm   1.0 mph 96 % 0.00 in
21:51 39.4 °F 38.3 °F 30.27 in Calm     96 % 0.00 in
21:57 39.4 °F 38.3 °F 30.27 in Calm     96 % 0.00 in
22:02 39.4 °F 38.3 °F 30.27 in Calm     96 % 0.00 in
22:07 39.4 °F 38.3 °F 30.27 in Calm     96 % 0.00 in
22:12 39.4 °F 38.3 °F 30.27 in West 0.9 mph 1.0 mph 96 % 0.00 in
22:17 39.6 °F 38.5 °F 30.26 in Calm   1.0 mph 96 % 0.00 in
22:22 39.6 °F 38.5 °F 30.27 in Calm   1.0 mph 96 % 0.00 in
22:27 39.6 °F 38.5 °F 30.27 in Calm     96 % 0.00 in
22:32 39.6 °F 38.5 °F 30.26 in Calm   2.0 mph 96 % 0.00 in
22:37 39.6 °F 38.5 °F 30.26 in Calm   3.0 mph 96 % 0.00 in
22:42 39.6 °F 38.5 °F 30.26 in NNW 0.9 mph 1.0 mph 96 % 0.00 in
FMWeather.us
Compliments of Weather Underground - 3 mb

Script developed by  Jim McMurry - jmcmurry@mwt.net Adapted for the template by  Wim van der Kuil - Leuven-Template.eu

You find our weather info also at:

WeatherCloud

Weather Underground

Mid South Weather Network

WeatherlinkIP

Citizen Weather Observer Program (CWOP)

HAMweather, WeatherForYou, PWS Weather

Equipment we use:

Weather-station
Davis Vantage Pro 2

Weather-program
Weather Display

Weather-server
Intel NUC

Provider
ehost.com

Davis Vantage Pro 2

Weather Display

Intel NUC

ehost.com